sensor_id;sensor_type;location;lat;lon;timestamp;P1;durP1;ratioP1;P2;durP2;ratioP2
51260;SDS011;61705;46.228;24.812;2022-11-20T00:01:18;16.33;;;8.65;;
51260;SDS011;61705;46.228;24.812;2022-11-20T00:03:50;14.55;;;8.90;;
51260;SDS011;61705;46.228;24.812;2022-11-20T00:06:18;18.38;;;9.38;;
51260;SDS011;61705;46.228;24.812;2022-11-20T00:08:45;21.20;;;10.60;;
51260;SDS011;61705;46.228;24.812;2022-11-20T00:11:14;20.63;;;10.20;;
51260;SDS011;61705;46.228;24.812;2022-11-20T00:13:45;21.55;;;11.90;;
51260;SDS011;61705;46.228;24.812;2022-11-20T00:16:14;22.92;;;12.63;;
51260;SDS011;61705;46.228;24.812;2022-11-20T00:18:43;25.88;;;12.98;;
51260;SDS011;61705;46.228;24.812;2022-11-20T00:21:11;23.48;;;12.63;;
51260;SDS011;61705;46.228;24.812;2022-11-20T00:23:40;32.67;;;15.80;;
51260;SDS011;61705;46.228;24.812;2022-11-20T00:26:11;25.23;;;13.82;;
51260;SDS011;61705;46.228;24.812;2022-11-20T00:28:40;25.77;;;13.68;;
51260;SDS011;61705;46.228;24.812;2022-11-20T00:31:08;27.15;;;14.30;;
51260;SDS011;61705;46.228;24.812;2022-11-20T00:33:37;27.52;;;14.60;;
51260;SDS011;61705;46.228;24.812;2022-11-20T00:36:08;27.13;;;14.43;;
51260;SDS011;61705;46.228;24.812;2022-11-20T00:38:37;28.67;;;15.10;;
51260;SDS011;61705;46.228;24.812;2022-11-20T00:41:05;31.92;;;15.20;;
51260;SDS011;61705;46.228;24.812;2022-11-20T00:43:33;25.73;;;13.82;;
51260;SDS011;61705;46.228;24.812;2022-11-20T00:46:02;26.13;;;14.57;;
51260;SDS011;61705;46.228;24.812;2022-11-20T00:48:33;26.70;;;14.63;;
51260;SDS011;61705;46.228;24.812;2022-11-20T00:51:00;24.30;;;13.15;;
51260;SDS011;61705;46.228;24.812;2022-11-20T00:53:27;25.25;;;13.02;;
51260;SDS011;61705;46.228;24.812;2022-11-20T00:58:32;21.50;;;11.40;;
51260;SDS011;61705;46.228;24.812;2022-11-20T01:01:00;21.15;;;10.90;;
51260;SDS011;61705;46.228;24.812;2022-11-20T01:03:32;21.83;;;11.10;;
51260;SDS011;61705;46.228;24.812;2022-11-20T01:06:03;20.77;;;10.75;;
51260;SDS011;61705;46.228;24.812;2022-11-20T01:08:41;19.70;;;9.95;;
51260;SDS011;61705;46.228;24.812;2022-11-20T01:11:18;18.55;;;10.18;;
51260;SDS011;61705;46.228;24.812;2022-11-20T01:13:47;19.30;;;9.48;;
51260;SDS011;61705;46.228;24.812;2022-11-20T01:16:19;20.83;;;10.57;;
51260;SDS011;61705;46.228;24.812;2022-11-20T01:18:57;19.65;;;10.23;;
51260;SDS011;61705;46.228;24.812;2022-11-20T01:23:53;21.45;;;11.57;;
51260;SDS011;61705;46.228;24.812;2022-11-20T01:26:21;23.52;;;11.75;;
51260;SDS011;61705;46.228;24.812;2022-11-20T01:28:50;19.15;;;10.18;;
51260;SDS011;61705;46.228;24.812;2022-11-20T01:33:49;19.70;;;10.30;;
51260;SDS011;61705;46.228;24.812;2022-11-20T01:36:18;21.02;;;11.20;;
51260;SDS011;61705;46.228;24.812;2022-11-20T01:38:46;20.95;;;11.27;;
51260;SDS011;61705;46.228;24.812;2022-11-20T01:41:14;18.70;;;9.82;;
51260;SDS011;61705;46.228;24.812;2022-11-20T01:44:01;18.40;;;9.50;;
51260;SDS011;61705;46.228;24.812;2022-11-20T01:46:30;18.75;;;9.18;;
51260;SDS011;61705;46.228;24.812;2022-11-20T01:49:00;18.23;;;9.57;;
51260;SDS011;61705;46.228;24.812;2022-11-20T01:51:38;23.83;;;9.80;;
51260;SDS011;61705;46.228;24.812;2022-11-20T01:54:28;20.27;;;9.63;;
51260;SDS011;61705;46.228;24.812;2022-11-20T01:57:00;18.23;;;8.70;;
51260;SDS011;61705;46.228;24.812;2022-11-20T01:59:28;16.05;;;8.13;;
51260;SDS011;61705;46.228;24.812;2022-11-20T02:01:55;17.67;;;9.35;;
51260;SDS011;61705;46.228;24.812;2022-11-20T02:04:23;18.67;;;9.30;;
51260;SDS011;61705;46.228;24.812;2022-11-20T02:07:09;19.80;;;9.80;;
51260;SDS011;61705;46.228;24.812;2022-11-20T02:09:36;24.80;;;12.43;;
51260;SDS011;61705;46.228;24.812;2022-11-20T02:12:03;16.65;;;9.10;;
51260;SDS011;61705;46.228;24.812;2022-11-20T02:14:30;17.10;;;8.88;;
51260;SDS011;61705;46.228;24.812;2022-11-20T02:16:57;18.80;;;9.10;;
51260;SDS011;61705;46.228;24.812;2022-11-20T02:19:28;18.73;;;9.15;;
51260;SDS011;61705;46.228;24.812;2022-11-20T02:22:02;15.32;;;8.23;;
51260;SDS011;61705;46.228;24.812;2022-11-20T02:24:36;15.85;;;7.97;;
51260;SDS011;61705;46.228;24.812;2022-11-20T02:27:05;17.52;;;7.55;;
51260;SDS011;61705;46.228;24.812;2022-11-20T02:29:42;14.50;;;7.50;;
51260;SDS011;61705;46.228;24.812;2022-11-20T02:34:49;16.50;;;8.82;;
51260;SDS011;61705;46.228;24.812;2022-11-20T02:37:16;16.23;;;8.43;;
51260;SDS011;61705;46.228;24.812;2022-11-20T02:39:44;15.60;;;7.45;;
51260;SDS011;61705;46.228;24.812;2022-11-20T02:42:16;17.13;;;8.20;;
51260;SDS011;61705;46.228;24.812;2022-11-20T02:44:43;16.63;;;8.57;;
51260;SDS011;61705;46.228;24.812;2022-11-20T02:47:10;18.13;;;8.90;;
51260;SDS011;61705;46.228;24.812;2022-11-20T02:49:36;15.52;;;8.07;;
51260;SDS011;61705;46.228;24.812;2022-11-20T02:52:03;16.52;;;7.93;;
51260;SDS011;61705;46.228;24.812;2022-11-20T02:54:30;14.32;;;6.88;;
51260;SDS011;61705;46.228;24.812;2022-11-20T02:56:57;14.20;;;7.10;;
51260;SDS011;61705;46.228;24.812;2022-11-20T02:59:23;14.60;;;6.32;;
51260;SDS011;61705;46.228;24.812;2022-11-20T03:01:50;13.13;;;7.25;;
51260;SDS011;61705;46.228;24.812;2022-11-20T03:04:17;17.55;;;7.72;;
51260;SDS011;61705;46.228;24.812;2022-11-20T03:06:43;17.30;;;8.38;;
51260;SDS011;61705;46.228;24.812;2022-11-20T03:09:10;15.73;;;8.02;;
51260;SDS011;61705;46.228;24.812;2022-11-20T03:11:36;16.38;;;8.27;;
51260;SDS011;61705;46.228;24.812;2022-11-20T03:14:04;15.95;;;7.82;;
51260;SDS011;61705;46.228;24.812;2022-11-20T03:16:31;19.20;;;8.40;;
51260;SDS011;61705;46.228;24.812;2022-11-20T03:18:59;17.27;;;7.75;;
51260;SDS011;61705;46.228;24.812;2022-11-20T03:21:26;13.65;;;6.75;;
51260;SDS011;61705;46.228;24.812;2022-11-20T03:23:53;12.18;;;6.35;;
51260;SDS011;61705;46.228;24.812;2022-11-20T03:26:21;12.75;;;6.20;;
51260;SDS011;61705;46.228;24.812;2022-11-20T03:28:56;11.85;;;6.32;;
51260;SDS011;61705;46.228;24.812;2022-11-20T03:31:35;11.98;;;6.03;;
51260;SDS011;61705;46.228;24.812;2022-11-20T03:34:07;11.48;;;5.57;;
51260;SDS011;61705;46.228;24.812;2022-11-20T03:36:37;12.73;;;6.60;;
51260;SDS011;61705;46.228;24.812;2022-11-20T03:39:04;13.48;;;5.90;;
51260;SDS011;61705;46.228;24.812;2022-11-20T03:41:35;11.43;;;5.65;;
51260;SDS011;61705;46.228;24.812;2022-11-20T03:44:04;12.55;;;6.93;;
51260;SDS011;61705;46.228;24.812;2022-11-20T03:46:33;13.27;;;6.07;;
51260;SDS011;61705;46.228;24.812;2022-11-20T03:49:00;16.55;;;6.95;;
51260;SDS011;61705;46.228;24.812;2022-11-20T03:51:27;12.38;;;6.13;;
51260;SDS011;61705;46.228;24.812;2022-11-20T03:53:56;13.65;;;6.10;;
51260;SDS011;61705;46.228;24.812;2022-11-20T03:56:30;12.40;;;6.75;;
51260;SDS011;61705;46.228;24.812;2022-11-20T03:58:58;11.25;;;5.85;;
51260;SDS011;61705;46.228;24.812;2022-11-20T04:01:27;13.60;;;6.40;;
51260;SDS011;61705;46.228;24.812;2022-11-20T04:03:56;12.52;;;6.10;;
51260;SDS011;61705;46.228;24.812;2022-11-20T04:06:24;12.63;;;6.40;;
51260;SDS011;61705;46.228;24.812;2022-11-20T04:08:58;11.80;;;5.72;;
51260;SDS011;61705;46.228;24.812;2022-11-20T04:11:26;17.83;;;8.20;;
51260;SDS011;61705;46.228;24.812;2022-11-20T04:13:56;14.88;;;7.13;;
51260;SDS011;61705;46.228;24.812;2022-11-20T04:16:28;13.80;;;6.65;;
51260;SDS011;61705;46.228;24.812;2022-11-20T04:18:58;17.13;;;9.77;;
51260;SDS011;61705;46.228;24.812;2022-11-20T04:21:26;17.13;;;7.53;;
51260;SDS011;61705;46.228;24.812;2022-11-20T04:23:53;12.30;;;6.55;;
51260;SDS011;61705;46.228;24.812;2022-11-20T04:26:22;13.82;;;6.90;;
51260;SDS011;61705;46.228;24.812;2022-11-20T04:28:50;16.73;;;7.50;;
51260;SDS011;61705;46.228;24.812;2022-11-20T04:31:22;14.07;;;7.13;;
51260;SDS011;61705;46.228;24.812;2022-11-20T04:33:50;16.58;;;7.85;;
51260;SDS011;61705;46.228;24.812;2022-11-20T04:36:21;15.02;;;7.57;;
51260;SDS011;61705;46.228;24.812;2022-11-20T04:38:59;18.77;;;8.20;;
51260;SDS011;61705;46.228;24.812;2022-11-20T04:41:29;19.65;;;7.75;;
51260;SDS011;61705;46.228;24.812;2022-11-20T04:43:57;12.77;;;6.28;;
51260;SDS011;61705;46.228;24.812;2022-11-20T04:46:29;15.30;;;7.18;;
51260;SDS011;61705;46.228;24.812;2022-11-20T04:48:59;13.07;;;6.63;;
51260;SDS011;61705;46.228;24.812;2022-11-20T04:51:26;15.05;;;7.15;;
51260;SDS011;61705;46.228;24.812;2022-11-20T04:53:53;17.90;;;8.93;;
51260;SDS011;61705;46.228;24.812;2022-11-20T04:56:20;17.27;;;8.60;;
51260;SDS011;61705;46.228;24.812;2022-11-20T04:58:47;16.85;;;8.48;;
51260;SDS011;61705;46.228;24.812;2022-11-20T05:03:42;21.40;;;10.52;;
51260;SDS011;61705;46.228;24.812;2022-11-20T05:06:11;19.02;;;9.20;;
51260;SDS011;61705;46.228;24.812;2022-11-20T05:08:39;14.52;;;7.38;;
51260;SDS011;61705;46.228;24.812;2022-11-20T05:11:11;16.70;;;7.38;;
51260;SDS011;61705;46.228;24.812;2022-11-20T05:13:39;14.50;;;7.30;;
51260;SDS011;61705;46.228;24.812;2022-11-20T05:16:08;18.67;;;8.60;;
51260;SDS011;61705;46.228;24.812;2022-11-20T05:18:40;14.75;;;7.78;;
51260;SDS011;61705;46.228;24.812;2022-11-20T05:21:08;17.80;;;8.90;;
51260;SDS011;61705;46.228;24.812;2022-11-20T05:23:36;19.23;;;9.20;;
51260;SDS011;61705;46.228;24.812;2022-11-20T05:26:03;18.55;;;9.48;;
51260;SDS011;61705;46.228;24.812;2022-11-20T05:28:31;17.02;;;7.50;;
51260;SDS011;61705;46.228;24.812;2022-11-20T05:31:05;19.70;;;9.70;;
51260;SDS011;61705;46.228;24.812;2022-11-20T05:33:37;19.00;;;9.45;;
51260;SDS011;61705;46.228;24.812;2022-11-20T05:36:06;20.77;;;8.85;;
51260;SDS011;61705;46.228;24.812;2022-11-20T05:38:34;21.05;;;9.13;;
51260;SDS011;61705;46.228;24.812;2022-11-20T05:41:08;16.67;;;8.68;;
51260;SDS011;61705;46.228;24.812;2022-11-20T05:43:37;15.77;;;7.97;;
51260;SDS011;61705;46.228;24.812;2022-11-20T05:46:05;26.73;;;13.43;;
51260;SDS011;61705;46.228;24.812;2022-11-20T05:48:34;18.42;;;9.50;;
51260;SDS011;61705;46.228;24.812;2022-11-20T05:51:01;19.25;;;8.63;;
51260;SDS011;61705;46.228;24.812;2022-11-20T05:53:29;17.60;;;8.80;;
51260;SDS011;61705;46.228;24.812;2022-11-20T05:56:00;17.77;;;9.20;;
51260;SDS011;61705;46.228;24.812;2022-11-20T05:58:29;20.52;;;9.55;;
51260;SDS011;61705;46.228;24.812;2022-11-20T06:01:02;22.85;;;8.80;;
51260;SDS011;61705;46.228;24.812;2022-11-20T06:03:32;15.82;;;7.82;;
51260;SDS011;61705;46.228;24.812;2022-11-20T06:05:59;18.98;;;9.73;;
51260;SDS011;61705;46.228;24.812;2022-11-20T06:08:26;20.70;;;9.68;;
51260;SDS011;61705;46.228;24.812;2022-11-20T06:10:53;17.77;;;9.23;;
51260;SDS011;61705;46.228;24.812;2022-11-20T06:13:20;19.65;;;10.75;;
51260;SDS011;61705;46.228;24.812;2022-11-20T06:15:53;17.02;;;8.27;;
51260;SDS011;61705;46.228;24.812;2022-11-20T06:18:22;19.60;;;9.18;;
51260;SDS011;61705;46.228;24.812;2022-11-20T06:20:48;18.13;;;10.10;;
51260;SDS011;61705;46.228;24.812;2022-11-20T06:23:15;22.90;;;11.20;;
51260;SDS011;61705;46.228;24.812;2022-11-20T06:25:42;20.65;;;9.68;;
51260;SDS011;61705;46.228;24.812;2022-11-20T06:28:09;19.40;;;9.98;;
51260;SDS011;61705;46.228;24.812;2022-11-20T06:30:36;17.65;;;9.27;;
51260;SDS011;61705;46.228;24.812;2022-11-20T06:33:03;17.40;;;8.93;;
51260;SDS011;61705;46.228;24.812;2022-11-20T06:35:29;22.77;;;12.45;;
51260;SDS011;61705;46.228;24.812;2022-11-20T06:37:56;19.40;;;9.05;;
51260;SDS011;61705;46.228;24.812;2022-11-20T06:40:23;18.58;;;10.07;;
51260;SDS011;61705;46.228;24.812;2022-11-20T06:42:49;24.08;;;12.43;;
51260;SDS011;61705;46.228;24.812;2022-11-20T06:45:16;21.83;;;10.57;;
51260;SDS011;61705;46.228;24.812;2022-11-20T06:47:43;28.90;;;14.63;;
51260;SDS011;61705;46.228;24.812;2022-11-20T06:50:09;30.80;;;16.02;;
51260;SDS011;61705;46.228;24.812;2022-11-20T06:52:36;41.83;;;22.80;;
51260;SDS011;61705;46.228;24.812;2022-11-20T06:55:08;21.73;;;9.85;;
51260;SDS011;61705;46.228;24.812;2022-11-20T06:57:37;16.90;;;9.35;;
51260;SDS011;61705;46.228;24.812;2022-11-20T07:00:04;26.85;;;14.27;;
51260;SDS011;61705;46.228;24.812;2022-11-20T07:02:31;30.42;;;15.95;;
51260;SDS011;61705;46.228;24.812;2022-11-20T07:04:58;22.13;;;11.75;;
51260;SDS011;61705;46.228;24.812;2022-11-20T07:07:25;28.38;;;15.13;;
51260;SDS011;61705;46.228;24.812;2022-11-20T07:09:51;25.38;;;13.90;;
51260;SDS011;61705;46.228;24.812;2022-11-20T07:12:18;28.35;;;14.70;;
51260;SDS011;61705;46.228;24.812;2022-11-20T07:14:44;24.77;;;12.95;;
51260;SDS011;61705;46.228;24.812;2022-11-20T07:17:11;19.77;;;10.98;;
51260;SDS011;61705;46.228;24.812;2022-11-20T07:19:38;16.85;;;8.77;;
51260;SDS011;61705;46.228;24.812;2022-11-20T07:22:05;16.42;;;8.57;;
51260;SDS011;61705;46.228;24.812;2022-11-20T07:24:32;18.02;;;9.07;;
51260;SDS011;61705;46.228;24.812;2022-11-20T07:26:58;18.75;;;10.93;;
51260;SDS011;61705;46.228;24.812;2022-11-20T07:29:25;21.42;;;11.38;;
51260;SDS011;61705;46.228;24.812;2022-11-20T07:31:52;27.88;;;14.95;;
51260;SDS011;61705;46.228;24.812;2022-11-20T07:34:18;32.75;;;17.65;;
51260;SDS011;61705;46.228;24.812;2022-11-20T07:36:46;33.55;;;18.85;;
51260;SDS011;61705;46.228;24.812;2022-11-20T07:39:12;34.17;;;18.48;;
51260;SDS011;61705;46.228;24.812;2022-11-20T07:41:39;23.05;;;12.13;;
51260;SDS011;61705;46.228;24.812;2022-11-20T07:44:06;27.10;;;15.00;;
51260;SDS011;61705;46.228;24.812;2022-11-20T07:46:33;54.30;;;32.95;;
51260;SDS011;61705;46.228;24.812;2022-11-20T07:48:59;30.77;;;17.85;;
51260;SDS011;61705;46.228;24.812;2022-11-20T07:51:26;33.90;;;18.30;;
51260;SDS011;61705;46.228;24.812;2022-11-20T07:53:53;37.85;;;21.10;;
51260;SDS011;61705;46.228;24.812;2022-11-20T07:56:20;35.63;;;20.58;;
51260;SDS011;61705;46.228;24.812;2022-11-20T07:58:46;28.80;;;15.35;;
51260;SDS011;61705;46.228;24.812;2022-11-20T08:01:13;36.30;;;20.52;;
51260;SDS011;61705;46.228;24.812;2022-11-20T08:03:40;43.05;;;21.45;;
51260;SDS011;61705;46.228;24.812;2022-11-20T08:06:06;42.38;;;22.40;;
51260;SDS011;61705;46.228;24.812;2022-11-20T08:08:33;36.28;;;20.60;;
51260;SDS011;61705;46.228;24.812;2022-11-20T08:11:07;28.48;;;14.05;;
51260;SDS011;61705;46.228;24.812;2022-11-20T08:13:52;27.45;;;14.70;;
51260;SDS011;61705;46.228;24.812;2022-11-20T08:16:44;24.45;;;12.45;;
51260;SDS011;61705;46.228;24.812;2022-11-20T08:19:12;22.38;;;11.45;;
51260;SDS011;61705;46.228;24.812;2022-11-20T08:21:40;22.80;;;12.07;;
51260;SDS011;61705;46.228;24.812;2022-11-20T08:24:09;23.92;;;13.93;;
51260;SDS011;61705;46.228;24.812;2022-11-20T08:26:38;21.05;;;12.18;;
51260;SDS011;61705;46.228;24.812;2022-11-20T08:29:06;21.73;;;12.75;;
51260;SDS011;61705;46.228;24.812;2022-11-20T08:31:33;19.20;;;11.10;;
51260;SDS011;61705;46.228;24.812;2022-11-20T08:34:00;22.42;;;11.18;;
51260;SDS011;61705;46.228;24.812;2022-11-20T08:36:34;18.50;;;10.65;;
51260;SDS011;61705;46.228;24.812;2022-11-20T08:39:01;24.33;;;12.63;;
51260;SDS011;61705;46.228;24.812;2022-11-20T08:41:29;22.45;;;12.35;;
51260;SDS011;61705;46.228;24.812;2022-11-20T08:44:00;20.67;;;11.20;;
51260;SDS011;61705;46.228;24.812;2022-11-20T08:49:04;22.38;;;11.30;;
51260;SDS011;61705;46.228;24.812;2022-11-20T08:51:32;21.48;;;11.48;;
51260;SDS011;61705;46.228;24.812;2022-11-20T08:53:59;19.30;;;9.88;;
51260;SDS011;61705;46.228;24.812;2022-11-20T08:56:26;17.08;;;10.40;;
51260;SDS011;61705;46.228;24.812;2022-11-20T08:58:53;21.20;;;10.20;;
51260;SDS011;61705;46.228;24.812;2022-11-20T09:01:40;19.02;;;10.15;;
51260;SDS011;61705;46.228;24.812;2022-11-20T09:04:06;26.05;;;15.75;;
51260;SDS011;61705;46.228;24.812;2022-11-20T09:06:33;17.80;;;10.93;;
51260;SDS011;61705;46.228;24.812;2022-11-20T09:09:00;20.55;;;11.02;;
51260;SDS011;61705;46.228;24.812;2022-11-20T09:11:32;18.30;;;10.25;;
51260;SDS011;61705;46.228;24.812;2022-11-20T09:13:59;20.25;;;12.05;;
51260;SDS011;61705;46.228;24.812;2022-11-20T09:16:26;20.98;;;12.20;;
51260;SDS011;61705;46.228;24.812;2022-11-20T09:18:52;19.77;;;11.40;;
51260;SDS011;61705;46.228;24.812;2022-11-20T09:21:39;22.33;;;11.77;;
51260;SDS011;61705;46.228;24.812;2022-11-20T09:24:06;21.88;;;13.15;;
51260;SDS011;61705;46.228;24.812;2022-11-20T09:26:32;23.80;;;13.35;;
51260;SDS011;61705;46.228;24.812;2022-11-20T09:28:59;24.42;;;14.02;;
51260;SDS011;61705;46.228;24.812;2022-11-20T09:31:26;25.08;;;13.65;;
51260;SDS011;61705;46.228;24.812;2022-11-20T09:33:52;25.83;;;14.25;;
51260;SDS011;61705;46.228;24.812;2022-11-20T09:36:19;20.90;;;12.13;;
51260;SDS011;61705;46.228;24.812;2022-11-20T09:38:46;19.35;;;10.02;;
51260;SDS011;61705;46.228;24.812;2022-11-20T09:47:24;17.58;;;9.82;;
51260;SDS011;61705;46.228;24.812;2022-11-20T09:50:03;19.98;;;11.70;;
51260;SDS011;61705;46.228;24.812;2022-11-20T09:55:30;18.58;;;9.10;;
51260;SDS011;61705;46.228;24.812;2022-11-20T09:57:57;23.35;;;12.10;;
51260;SDS011;61705;46.228;24.812;2022-11-20T10:00:25;17.08;;;10.52;;
51260;SDS011;61705;46.228;24.812;2022-11-20T10:05:50;21.60;;;11.23;;
51260;SDS011;61705;46.228;24.812;2022-11-20T10:08:31;18.20;;;10.60;;
51260;SDS011;61705;46.228;24.812;2022-11-20T10:14:09;21.30;;;11.95;;
51260;SDS011;61705;46.228;24.812;2022-11-20T10:17:18;22.88;;;12.70;;
51260;SDS011;61705;46.228;24.812;2022-11-20T10:19:56;23.50;;;11.52;;
51260;SDS011;61705;46.228;24.812;2022-11-20T10:23:00;17.95;;;10.10;;
51260;SDS011;61705;46.228;24.812;2022-11-20T10:25:34;20.60;;;11.05;;
51260;SDS011;61705;46.228;24.812;2022-11-20T10:31:07;15.93;;;10.18;;
51260;SDS011;61705;46.228;24.812;2022-11-20T10:33:41;21.15;;;10.50;;
51260;SDS011;61705;46.228;24.812;2022-11-20T10:36:35;22.27;;;10.38;;
51260;SDS011;61705;46.228;24.812;2022-11-20T10:39:25;18.88;;;9.65;;
51260;SDS011;61705;46.228;24.812;2022-11-20T10:41:58;28.70;;;13.68;;
51260;SDS011;61705;46.228;24.812;2022-11-20T10:44:26;21.45;;;10.23;;
51260;SDS011;61705;46.228;24.812;2022-11-20T10:47:18;16.40;;;9.65;;
51260;SDS011;61705;46.228;24.812;2022-11-20T10:49:46;16.92;;;9.18;;
51260;SDS011;61705;46.228;24.812;2022-11-20T11:00:34;21.17;;;12.07;;
51260;SDS011;61705;46.228;24.812;2022-11-20T11:03:01;16.98;;;8.75;;
51260;SDS011;61705;46.228;24.812;2022-11-20T11:08:08;26.55;;;11.98;;
51260;SDS011;61705;46.228;24.812;2022-11-20T11:13:27;26.35;;;11.10;;
51260;SDS011;61705;46.228;24.812;2022-11-20T11:15:55;24.45;;;11.95;;
51260;SDS011;61705;46.228;24.812;2022-11-20T11:18:26;17.27;;;10.10;;
51260;SDS011;61705;46.228;24.812;2022-11-20T11:20:56;19.83;;;10.63;;
51260;SDS011;61705;46.228;24.812;2022-11-20T11:25:59;18.20;;;10.60;;
51260;SDS011;61705;46.228;24.812;2022-11-20T11:28:27;19.42;;;10.02;;
51260;SDS011;61705;46.228;24.812;2022-11-20T11:30:55;17.73;;;10.43;;
51260;SDS011;61705;46.228;24.812;2022-11-20T11:33:26;17.35;;;10.70;;
51260;SDS011;61705;46.228;24.812;2022-11-20T11:35:55;16.73;;;9.57;;
51260;SDS011;61705;46.228;24.812;2022-11-20T11:38:29;19.13;;;10.35;;
51260;SDS011;61705;46.228;24.812;2022-11-20T11:41:04;25.90;;;13.02;;
51260;SDS011;61705;46.228;24.812;2022-11-20T11:43:32;22.52;;;10.02;;
51260;SDS011;61705;46.228;24.812;2022-11-20T11:51:59;19.83;;;11.55;;
51260;SDS011;61705;46.228;24.812;2022-11-20T11:54:47;20.00;;;11.48;;
51260;SDS011;61705;46.228;24.812;2022-11-20T12:05:18;22.83;;;12.73;;
51260;SDS011;61705;46.228;24.812;2022-11-20T12:07:51;25.60;;;12.95;;
51260;SDS011;61705;46.228;24.812;2022-11-20T12:16:19;21.70;;;11.20;;
51260;SDS011;61705;46.228;24.812;2022-11-20T12:18:50;31.77;;;13.27;;
51260;SDS011;61705;46.228;24.812;2022-11-20T12:21:19;40.88;;;17.17;;
51260;SDS011;61705;46.228;24.812;2022-11-20T12:29:27;31.92;;;15.07;;
51260;SDS011;61705;46.228;24.812;2022-11-20T12:46:46;37.88;;;21.52;;
51260;SDS011;61705;46.228;24.812;2022-11-20T13:08:04;33.38;;;17.67;;
51260;SDS011;61705;46.228;24.812;2022-11-20T13:11:31;35.13;;;18.63;;
51260;SDS011;61705;46.228;24.812;2022-11-20T13:16:04;39.80;;;20.95;;
51260;SDS011;61705;46.228;24.812;2022-11-20T13:18:39;38.03;;;18.70;;
51260;SDS011;61705;46.228;24.812;2022-11-20T13:23:43;29.25;;;15.00;;
51260;SDS011;61705;46.228;24.812;2022-11-20T13:26:17;39.70;;;18.85;;
51260;SDS011;61705;46.228;24.812;2022-11-20T13:28:59;41.65;;;20.08;;
51260;SDS011;61705;46.228;24.812;2022-11-20T13:31:35;28.75;;;15.43;;
51260;SDS011;61705;46.228;24.812;2022-11-20T13:34:06;29.73;;;14.20;;
51260;SDS011;61705;46.228;24.812;2022-11-20T13:36:38;26.58;;;13.68;;
51260;SDS011;61705;46.228;24.812;2022-11-20T13:44:39;24.65;;;13.93;;
51260;SDS011;61705;46.228;24.812;2022-11-20T13:47:23;29.60;;;15.45;;
51260;SDS011;61705;46.228;24.812;2022-11-20T13:49:52;27.58;;;14.48;;
51260;SDS011;61705;46.228;24.812;2022-11-20T14:00:22;26.60;;;13.00;;
51260;SDS011;61705;46.228;24.812;2022-11-20T14:02:57;27.15;;;14.15;;
51260;SDS011;61705;46.228;24.812;2022-11-20T14:05:28;27.15;;;14.30;;
51260;SDS011;61705;46.228;24.812;2022-11-20T14:08:02;30.55;;;15.68;;
51260;SDS011;61705;46.228;24.812;2022-11-20T14:10:31;33.22;;;15.75;;
51260;SDS011;61705;46.228;24.812;2022-11-20T14:12:58;29.33;;;14.10;;
51260;SDS011;61705;46.228;24.812;2022-11-20T14:15:36;28.25;;;14.73;;
51260;SDS011;61705;46.228;24.812;2022-11-20T14:18:14;25.70;;;13.68;;
51260;SDS011;61705;46.228;24.812;2022-11-20T14:20:45;33.42;;;16.67;;
51260;SDS011;61705;46.228;24.812;2022-11-20T14:23:23;25.42;;;13.98;;
51260;SDS011;61705;46.228;24.812;2022-11-20T14:25:55;29.50;;;15.20;;
51260;SDS011;61705;46.228;24.812;2022-11-20T14:28:27;27.45;;;15.70;;
51260;SDS011;61705;46.228;24.812;2022-11-20T14:30:55;26.55;;;14.52;;
51260;SDS011;61705;46.228;24.812;2022-11-20T14:33:23;31.70;;;14.07;;
51260;SDS011;61705;46.228;24.812;2022-11-20T14:35:55;27.77;;;12.75;;
51260;SDS011;61705;46.228;24.812;2022-11-20T14:38:25;22.13;;;11.82;;
51260;SDS011;61705;46.228;24.812;2022-11-20T14:40:54;24.33;;;12.55;;
51260;SDS011;61705;46.228;24.812;2022-11-20T14:43:32;23.95;;;11.85;;
51260;SDS011;61705;46.228;24.812;2022-11-20T14:46:05;26.27;;;13.13;;
51260;SDS011;61705;46.228;24.812;2022-11-20T14:48:47;23.52;;;12.35;;
51260;SDS011;61705;46.228;24.812;2022-11-20T14:51:29;24.90;;;12.07;;
51260;SDS011;61705;46.228;24.812;2022-11-20T14:54:07;52.47;;;25.77;;
51260;SDS011;61705;46.228;24.812;2022-11-20T14:56:54;74.18;;;29.48;;
51260;SDS011;61705;46.228;24.812;2022-11-20T14:59:28;71.15;;;44.40;;
51260;SDS011;61705;46.228;24.812;2022-11-20T15:02:01;48.45;;;25.15;;
51260;SDS011;61705;46.228;24.812;2022-11-20T15:04:30;47.47;;;24.73;;
51260;SDS011;61705;46.228;24.812;2022-11-20T15:06:57;29.10;;;13.68;;
51260;SDS011;61705;46.228;24.812;2022-11-20T15:09:25;27.50;;;12.00;;
51260;SDS011;61705;46.228;24.812;2022-11-20T15:12:15;28.80;;;11.82;;
51260;SDS011;61705;46.228;24.812;2022-11-20T15:14:43;26.30;;;11.82;;
51260;SDS011;61705;46.228;24.812;2022-11-20T15:17:10;63.20;;;31.45;;
51260;SDS011;61705;46.228;24.812;2022-11-20T15:19:37;39.35;;;20.60;;
51260;SDS011;61705;46.228;24.812;2022-11-20T15:22:04;25.58;;;11.38;;
51260;SDS011;61705;46.228;24.812;2022-11-20T15:27:07;21.83;;;9.80;;
51260;SDS011;61705;46.228;24.812;2022-11-20T15:29:34;45.92;;;18.95;;
51260;SDS011;61705;46.228;24.812;2022-11-20T15:32:01;44.67;;;19.67;;
51260;SDS011;61705;46.228;24.812;2022-11-20T15:34:37;44.60;;;22.77;;
51260;SDS011;61705;46.228;24.812;2022-11-20T15:37:03;73.72;;;27.98;;
51260;SDS011;61705;46.228;24.812;2022-11-20T15:39:30;64.22;;;26.13;;
51260;SDS011;61705;46.228;24.812;2022-11-20T15:41:57;53.72;;;22.75;;
51260;SDS011;61705;46.228;24.812;2022-11-20T15:44:23;32.15;;;13.88;;
51260;SDS011;61705;46.228;24.812;2022-11-20T15:46:50;26.30;;;13.15;;
51260;SDS011;61705;46.228;24.812;2022-11-20T15:49:17;30.23;;;16.30;;
51260;SDS011;61705;46.228;24.812;2022-11-20T15:51:46;40.33;;;20.92;;
51260;SDS011;61705;46.228;24.812;2022-11-20T15:54:15;32.97;;;17.30;;
51260;SDS011;61705;46.228;24.812;2022-11-20T15:56:47;30.88;;;16.08;;
51260;SDS011;61705;46.228;24.812;2022-11-20T15:59:14;28.52;;;14.30;;
51260;SDS011;61705;46.228;24.812;2022-11-20T16:01:42;36.65;;;19.77;;
51260;SDS011;61705;46.228;24.812;2022-11-20T16:04:13;30.27;;;18.08;;
51260;SDS011;61705;46.228;24.812;2022-11-20T16:06:41;32.92;;;18.23;;
51260;SDS011;61705;46.228;24.812;2022-11-20T16:09:08;37.33;;;18.05;;
51260;SDS011;61705;46.228;24.812;2022-11-20T16:11:35;41.70;;;19.38;;
51260;SDS011;61705;46.228;24.812;2022-11-20T16:14:03;41.13;;;20.60;;
51260;SDS011;61705;46.228;24.812;2022-11-20T16:16:50;40.70;;;21.52;;
51260;SDS011;61705;46.228;24.812;2022-11-20T16:19:17;33.72;;;16.60;;
51260;SDS011;61705;46.228;24.812;2022-11-20T16:21:44;36.08;;;16.02;;
51260;SDS011;61705;46.228;24.812;2022-11-20T16:24:11;30.60;;;15.40;;
51260;SDS011;61705;46.228;24.812;2022-11-20T16:26:39;42.63;;;19.63;;
51260;SDS011;61705;46.228;24.812;2022-11-20T16:29:07;31.77;;;15.77;;
51260;SDS011;61705;46.228;24.812;2022-11-20T16:31:36;31.48;;;16.38;;
51260;SDS011;61705;46.228;24.812;2022-11-20T16:34:05;31.38;;;16.75;;
51260;SDS011;61705;46.228;24.812;2022-11-20T16:36:49;36.65;;;17.55;;
51260;SDS011;61705;46.228;24.812;2022-11-20T16:39:15;40.38;;;18.08;;
51260;SDS011;61705;46.228;24.812;2022-11-20T16:41:48;39.45;;;20.42;;